createdAt,value
2017-11-10T00:02:01.683Z,49.17
2017-11-10T00:04:28.531Z,47.42
2017-11-10T00:06:55.398Z,45.33
2017-11-10T00:09:22.313Z,45.38
2017-11-10T00:11:49.458Z,49.03
2017-11-10T00:14:16.337Z,47.25
2017-11-10T00:16:43.210Z,46.58
2017-11-10T00:19:10.264Z,47.20
2017-11-10T00:21:37.450Z,42.97
2017-11-10T00:24:04.268Z,44.28
2017-11-10T00:26:31.130Z,44.03
2017-11-10T00:28:57.972Z,45.65
2017-11-10T00:31:25.131Z,43.25
2017-11-10T00:33:51.960Z,44.42
2017-11-10T00:36:18.840Z,41.15
2017-11-10T00:38:45.685Z,43.50
2017-11-10T00:41:12.529Z,44.38
2017-11-10T00:43:39.364Z,40.70
2017-11-10T00:46:06.493Z,41.58
2017-11-10T00:48:33.332Z,42.67
2017-11-10T00:51:00.180Z,42.62
2017-11-10T00:53:27.010Z,40.45
2017-11-10T00:55:53.848Z,40.77
2017-11-10T00:58:20.712Z,40.47
2017-11-10T01:00:47.852Z,41.13
2017-11-10T01:03:14.999Z,40.58
2017-11-10T01:05:41.840Z,39.22
2017-11-10T01:08:08.995Z,39.53
2017-11-10T01:10:36.146Z,38.63
2017-11-10T01:13:03.303Z,39.58
2017-11-10T01:15:30.140Z,40.05
2017-11-10T01:17:56.956Z,37.63
2017-11-10T01:20:23.791Z,38.08
2017-11-10T01:22:50.834Z,36.80
2017-11-10T01:25:17.919Z,39.28
2017-11-10T01:27:44.766Z,38.65
2017-11-10T01:30:11.607Z,38.53
2017-11-10T01:32:38.441Z,38.20
2017-11-10T01:35:05.286Z,37.90
2017-11-10T01:37:32.098Z,38.35
2017-11-10T01:39:58.914Z,38.20
2017-11-10T01:42:26.027Z,42.83
2017-11-10T01:44:53.074Z,40.83
2017-11-10T01:47:20.229Z,42.17
2017-11-10T01:49:47.380Z,39.63
2017-11-10T01:52:14.230Z,42.85
2017-11-10T01:54:41.072Z,40.93
2017-11-10T01:57:08.221Z,41.08
2017-11-10T01:59:35.104Z,41.45
2017-11-10T02:02:01.969Z,40.20
2017-11-10T02:04:29.155Z,41.30
2017-11-10T02:06:56.025Z,38.25
2017-11-10T02:09:23.148Z,39.03
2017-11-10T02:11:50.305Z,42.45
2017-11-10T02:14:17.450Z,38.78
2017-11-10T02:16:44.298Z,37.50
2017-11-10T02:19:11.441Z,35.33
2017-11-10T02:21:38.313Z,34.60
2017-11-10T02:24:05.173Z,35.63
2017-11-10T02:26:32.381Z,35.05
2017-11-10T02:28:59.537Z,35.72
2017-11-10T02:31:26.405Z,36.47
2017-11-10T02:33:53.301Z,36.15
2017-11-10T02:36:20.175Z,34.58
2017-11-10T02:38:47.320Z,34.85
2017-11-10T02:41:14.416Z,34.63
2017-11-10T02:43:41.240Z,36.50
2017-11-10T02:46:08.105Z,33.88
2017-11-10T02:48:34.992Z,35.58
2017-11-10T02:51:02.150Z,36.65
2017-11-10T02:53:29.297Z,36.85
2017-11-10T02:55:56.444Z,34.83
2017-11-10T02:58:23.592Z,36.50
2017-11-10T03:00:50.461Z,37.35
2017-11-10T03:03:17.367Z,39.70
2017-11-10T03:05:44.240Z,37.30
2017-11-10T03:08:11.097Z,39.15
2017-11-10T03:10:38.164Z,40.40
2017-11-10T03:13:05.269Z,38.42
2017-11-10T03:15:32.152Z,38.78
2017-11-10T03:17:59.016Z,39.15
2017-11-10T03:20:26.214Z,41.50
2017-11-10T03:22:53.264Z,42.00
2017-11-10T03:25:20.176Z,42.40
2017-11-10T03:27:47.252Z,43.75
2017-11-10T03:30:14.396Z,42.33
2017-11-10T03:32:41.290Z,44.25
2017-11-10T03:35:08.137Z,44.13
2017-11-10T03:37:35.234Z,45.75
2017-11-10T03:40:02.393Z,44.05
2017-11-10T03:42:29.236Z,45.53
2017-11-10T03:44:56.381Z,46.88
2017-11-10T03:47:23.534Z,47.00
2017-11-10T03:49:50.680Z,46.83
2017-11-10T03:52:17.829Z,51.40
2017-11-10T03:54:44.708Z,53.03
2017-11-10T03:57:11.544Z,52.90
2017-11-10T03:59:38.400Z,52.10
2017-11-10T04:02:05.258Z,53.60
2017-11-10T04:04:32.122Z,49.22
2017-11-10T04:06:58.960Z,51.25
2017-11-10T04:09:25.847Z,52.03
2017-11-10T04:11:52.737Z,54.05
2017-11-10T04:14:19.576Z,51.33
2017-11-10T04:16:46.435Z,49.85
2017-11-10T04:19:13.616Z,46.30
2017-11-10T04:21:40.444Z,46.08
2017-11-10T04:24:07.288Z,46.33
2017-11-10T04:26:34.451Z,43.30
2017-11-10T04:29:01.307Z,45.00
2017-11-10T04:31:28.164Z,43.20
2017-11-10T04:33:54.984Z,41.70
2017-11-10T04:36:21.854Z,43.60
2017-11-10T04:38:48.713Z,40.00
2017-11-10T04:41:15.586Z,37.80
2017-11-10T04:43:42.428Z,38.25
2017-11-10T04:46:09.324Z,36.40
2017-11-10T04:48:36.454Z,36.63
2017-11-10T04:51:03.318Z,36.75
2017-11-10T04:53:30.546Z,36.50
2017-11-10T04:55:57.697Z,35.83
2017-11-10T04:58:24.516Z,34.67
2017-11-10T05:00:51.380Z,35.22
2017-11-10T05:03:18.248Z,35.35
2017-11-10T05:05:45.133Z,36.67
2017-11-10T05:08:12.322Z,35.58
2017-11-10T05:10:39.175Z,35.70
2017-11-10T05:13:06.312Z,36.25
2017-11-10T05:15:33.196Z,34.58
2017-11-10T05:18:00.313Z,34.05
2017-11-10T05:20:27.132Z,34.15
2017-11-10T05:22:54.012Z,34.35
2017-11-10T05:25:21.150Z,35.13
2017-11-10T05:27:48.026Z,37.22
2017-11-10T05:30:15.244Z,35.05
2017-11-10T05:32:42.393Z,35.70
2017-11-10T05:35:09.546Z,34.00
2017-11-10T05:37:36.400Z,34.67
2017-11-10T05:40:03.326Z,33.15
2017-11-10T05:42:30.190Z,34.20
2017-11-10T05:44:57.330Z,36.97
2017-11-10T05:47:24.221Z,37.72
2017-11-10T05:49:51.086Z,35.58
2017-11-10T05:52:18.266Z,37.05
2017-11-10T05:54:45.417Z,34.78
2017-11-10T05:57:12.569Z,34.60
2017-11-10T05:59:39.712Z,33.40
2017-11-10T06:02:06.599Z,36.60
2017-11-10T06:04:33.526Z,33.17
2017-11-10T06:07:00.444Z,34.65
2017-11-10T06:09:27.305Z,33.25
2017-11-10T06:11:54.455Z,33.78
2017-11-10T06:14:21.326Z,32.97
2017-11-10T06:16:48.433Z,33.10
2017-11-10T06:19:15.580Z,33.83
2017-11-10T06:21:42.421Z,34.28
2017-11-10T06:24:09.590Z,33.80
2017-11-10T06:26:36.735Z,31.08
2017-11-10T06:29:03.552Z,32.40
2017-11-10T06:31:30.725Z,32.95
2017-11-10T06:33:57.556Z,33.92
2017-11-10T06:36:24.475Z,32.80
2017-11-10T06:38:51.341Z,32.38
2017-11-10T06:41:18.184Z,32.53
2017-11-10T06:43:45.020Z,32.85
2017-11-10T06:46:11.877Z,32.20
2017-11-10T06:48:38.764Z,32.25
2017-11-10T06:51:05.993Z,33.45
2017-11-10T06:53:32.861Z,32.80
2017-11-10T06:56:00.086Z,32.88
2017-11-10T06:58:27.236Z,33.90
2017-11-10T07:00:54.075Z,33.53
2017-11-10T07:03:20.940Z,32.50
2017-11-10T07:05:47.767Z,31.57
2017-11-10T07:08:14.909Z,35.53
2017-11-10T07:10:41.753Z,34.43
2017-11-10T07:13:08.608Z,33.47
2017-11-10T07:15:35.474Z,35.40
2017-11-10T07:18:02.590Z,33.50
2017-11-10T07:20:29.466Z,34.63
2017-11-10T07:22:56.585Z,36.40
2017-11-10T07:25:23.430Z,34.25
2017-11-10T07:27:50.271Z,31.52
2017-11-10T07:30:17.370Z,33.28
2017-11-10T07:32:44.204Z,32.03
2017-11-10T07:35:11.057Z,34.15
2017-11-10T07:37:37.929Z,32.30
2017-11-10T07:40:04.763Z,32.40
2017-11-10T07:42:31.634Z,32.00
2017-11-10T07:44:58.779Z,30.15
2017-11-10T07:47:25.933Z,31.45
2017-11-10T07:49:52.813Z,32.53
2017-11-10T07:52:19.924Z,30.30
2017-11-10T07:54:46.785Z,30.10
2017-11-10T07:57:13.665Z,28.85
2017-11-10T07:59:40.499Z,28.87
2017-11-10T08:02:07.375Z,29.17
2017-11-10T08:04:34.200Z,30.77
2017-11-10T08:07:01.057Z,28.60
2017-11-10T08:09:27.905Z,28.80
2017-11-10T08:11:55.082Z,29.05
2017-11-10T08:14:22.203Z,29.40
2017-11-10T08:16:49.032Z,27.33
2017-11-10T08:19:15.852Z,28.02
2017-11-10T08:21:42.965Z,27.42
2017-11-10T08:24:09.813Z,27.60
2017-11-10T08:26:36.656Z,29.10
2017-11-10T08:29:03.873Z,27.35
2017-11-10T08:31:30.742Z,25.30
2017-11-10T08:33:57.580Z,25.08
2017-11-10T08:36:24.751Z,26.70
2017-11-10T08:38:51.836Z,23.40
2017-11-10T08:41:18.682Z,22.95
2017-11-10T08:43:45.556Z,22.45
2017-11-10T08:46:12.705Z,22.33
2017-11-10T08:48:39.776Z,22.50
2017-11-10T08:51:06.658Z,21.90
2017-11-10T08:53:33.771Z,22.10
2017-11-10T08:56:00.583Z,20.53
2017-11-10T08:58:27.412Z,21.12
2017-11-10T09:00:54.248Z,20.60
2017-11-10T09:03:21.101Z,20.70
2017-11-10T09:05:47.950Z,19.02
2017-11-10T09:08:14.771Z,19.45
2017-11-10T09:10:41.605Z,17.80
2017-11-10T09:13:08.423Z,17.17
2017-11-10T09:15:35.291Z,16.45
2017-11-10T09:18:02.510Z,15.40
2017-11-10T09:20:29.657Z,16.33
2017-11-10T09:22:56.501Z,16.50
2017-11-10T09:25:23.344Z,16.63
2017-11-10T09:27:50.219Z,15.80
2017-11-10T09:30:17.068Z,16.52
2017-11-10T09:32:44.189Z,15.75
2017-11-10T09:35:11.062Z,15.40
2017-11-10T09:37:37.969Z,15.50
2017-11-10T09:40:05.122Z,15.57
2017-11-10T09:42:31.969Z,14.93
2017-11-10T09:44:58.818Z,13.98
2017-11-10T09:47:25.709Z,14.30
2017-11-10T09:49:52.549Z,14.10
2017-11-10T09:52:19.640Z,14.40
2017-11-10T09:54:46.481Z,14.10
2017-11-10T09:57:13.642Z,13.50
2017-11-10T09:59:40.508Z,13.40
2017-11-10T10:02:07.425Z,13.65
2017-11-10T10:04:34.286Z,14.10
2017-11-10T10:07:01.137Z,14.20
2017-11-10T10:09:27.965Z,14.55
2017-11-10T10:11:55.106Z,14.77
2017-11-10T10:14:21.949Z,16.00
2017-11-10T10:16:48.764Z,16.60
2017-11-10T10:19:15.642Z,16.67
2017-11-10T10:21:42.518Z,16.20
2017-11-10T10:24:09.357Z,17.33
2017-11-10T10:26:36.210Z,18.73
2017-11-10T10:29:03.074Z,19.15
2017-11-10T10:31:29.939Z,19.00
2017-11-10T10:33:56.797Z,19.77
2017-11-10T10:36:23.632Z,20.40
2017-11-10T10:38:50.501Z,20.15
2017-11-10T10:41:17.672Z,20.58
2017-11-10T10:43:44.554Z,19.42
2017-11-10T10:46:11.422Z,19.25
2017-11-10T10:48:38.569Z,18.50
2017-11-10T10:51:05.404Z,19.77
2017-11-10T10:53:32.569Z,20.70
2017-11-10T10:55:59.408Z,19.70
2017-11-10T10:58:26.270Z,19.30
2017-11-10T11:00:53.132Z,19.00
2017-11-10T11:03:20.003Z,19.50
2017-11-10T11:05:47.080Z,18.60
2017-11-10T11:08:13.964Z,16.60
2017-11-10T11:10:40.779Z,16.17
2017-11-10T11:13:08.531Z,15.13
2017-11-10T11:15:35.386Z,15.50
2017-11-10T11:18:02.234Z,15.02
2017-11-10T11:20:29.377Z,15.00
2017-11-10T11:22:56.533Z,15.30
2017-11-10T11:25:23.412Z,14.00
2017-11-10T11:27:50.289Z,14.43
2017-11-10T11:30:17.365Z,13.80
2017-11-10T11:32:44.513Z,13.68
2017-11-10T11:35:11.358Z,13.37
2017-11-10T11:37:38.210Z,13.57
2017-11-10T11:40:05.344Z,13.80
2017-11-10T11:42:32.164Z,13.05
2017-11-10T11:44:59.035Z,12.75
2017-11-10T11:47:25.856Z,12.45
2017-11-10T11:49:52.728Z,11.68
2017-11-10T11:52:19.578Z,11.20
2017-11-10T11:54:46.416Z,11.10
2017-11-10T11:57:13.245Z,11.00
2017-11-10T11:59:40.114Z,11.67
2017-11-10T12:02:07.346Z,11.10
2017-11-10T12:04:34.201Z,10.65
2017-11-10T12:07:01.041Z,10.57
2017-11-10T12:09:27.910Z,9.90
2017-11-10T12:11:55.026Z,9.68
2017-11-10T12:14:23.034Z,10.18
2017-11-10T12:16:49.876Z,8.93
2017-11-10T12:19:16.742Z,8.30
2017-11-10T12:21:43.621Z,8.77
2017-11-10T12:24:10.779Z,8.20
2017-11-10T12:26:37.693Z,9.00
2017-11-10T12:29:04.530Z,8.85
2017-11-10T12:31:31.367Z,12.45
2017-11-10T12:33:58.456Z,8.20
2017-11-10T12:36:25.325Z,7.95
2017-11-10T12:38:52.554Z,14.10
2017-11-10T12:41:19.442Z,8.32
2017-11-10T12:43:46.544Z,7.37
2017-11-10T12:46:13.417Z,7.10
2017-11-10T12:48:40.533Z,7.20
2017-11-10T12:51:07.690Z,7.05
2017-11-10T12:53:34.562Z,7.00
2017-11-10T12:56:01.429Z,6.80
2017-11-10T12:58:28.322Z,6.62
2017-11-10T13:00:55.193Z,7.20
2017-11-10T13:03:22.318Z,6.53
2017-11-10T13:05:49.210Z,7.53
2017-11-10T13:08:16.053Z,7.65
2017-11-10T13:10:42.880Z,7.37
2017-11-10T13:13:09.737Z,7.60
2017-11-10T13:15:36.604Z,7.90
2017-11-10T13:18:03.677Z,8.85
2017-11-10T13:20:30.542Z,8.30
2017-11-10T13:22:57.458Z,8.30
2017-11-10T13:25:24.277Z,8.60
2017-11-10T13:27:51.464Z,8.43
2017-11-10T13:30:18.273Z,7.87
2017-11-10T13:32:45.112Z,8.00
2017-11-10T13:35:11.981Z,7.90
2017-11-10T13:37:39.213Z,7.57
2017-11-10T13:40:06.081Z,7.05
2017-11-10T13:42:32.918Z,7.00
2017-11-10T13:45:00.098Z,7.00
2017-11-10T13:47:26.986Z,7.10
2017-11-10T13:49:53.842Z,7.40
2017-11-10T13:52:20.729Z,8.48
2017-11-10T13:54:47.545Z,7.60
2017-11-10T13:57:14.382Z,7.80
2017-11-10T13:59:41.544Z,7.70
2017-11-10T14:02:08.394Z,6.97
2017-11-10T14:04:35.545Z,7.87
2017-11-10T14:07:02.372Z,7.90
2017-11-10T14:09:29.930Z,8.13
2017-11-10T14:11:57.317Z,8.25
2017-11-10T14:14:24.555Z,7.28
2017-11-10T14:16:51.398Z,7.93
2017-11-10T14:19:18.233Z,8.27
2017-11-10T14:21:45.102Z,9.13
2017-11-10T14:24:11.958Z,7.93
2017-11-10T14:26:38.822Z,7.35
2017-11-10T14:29:05.912Z,4.30
2017-11-10T14:31:32.791Z,3.62
2017-11-10T14:33:59.628Z,3.60
2017-11-10T14:36:26.758Z,3.00
2017-11-10T14:38:53.577Z,2.50
2017-11-10T14:41:20.425Z,2.37
2017-11-10T14:43:47.304Z,2.28
2017-11-10T14:46:14.198Z,4.60
2017-11-10T14:48:41.016Z,3.87
2017-11-10T14:51:07.851Z,4.80
2017-11-10T14:53:34.688Z,2.87
2017-11-10T14:56:01.536Z,2.30
2017-11-10T14:58:28.648Z,2.60
2017-11-10T15:00:55.452Z,2.28
2017-11-10T15:03:22.539Z,2.30
2017-11-10T15:05:49.603Z,2.60
2017-11-10T15:08:16.440Z,2.40
2017-11-10T15:10:43.298Z,2.30
2017-11-10T15:13:10.524Z,1.80
2017-11-10T15:15:37.348Z,2.40
2017-11-10T15:18:04.222Z,2.10
2017-11-10T15:20:31.098Z,3.22
2017-11-10T15:22:57.961Z,2.70
2017-11-10T15:25:24.780Z,1.80
2017-11-10T15:27:51.630Z,2.15
2017-11-10T15:30:18.733Z,1.50
2017-11-10T15:32:45.615Z,1.90
2017-11-10T15:35:12.486Z,1.85
2017-11-10T15:37:39.344Z,2.85
2017-11-10T15:40:06.434Z,1.62
2017-11-10T15:42:33.273Z,1.70
2017-11-10T15:45:00.167Z,1.70
2017-11-10T15:47:27.033Z,1.50
2017-11-10T15:49:53.858Z,1.70
2017-11-10T15:52:20.690Z,1.62
2017-11-10T15:54:47.778Z,1.70
2017-11-10T15:57:14.928Z,1.60
2017-11-10T15:59:41.764Z,1.62
2017-11-10T16:02:08.621Z,3.42
2017-11-10T16:04:35.498Z,1.90
2017-11-10T16:07:02.557Z,1.80
2017-11-10T16:09:29.626Z,1.33
2017-11-10T16:11:56.499Z,1.50
2017-11-10T16:14:23.553Z,1.77
2017-11-10T16:16:50.386Z,1.60
2017-11-10T16:19:17.293Z,1.90
2017-11-10T16:21:44.153Z,1.92
2017-11-10T16:24:10.984Z,2.00
2017-11-10T16:26:38.073Z,2.28
2017-11-10T16:29:05.128Z,1.95
2017-11-10T16:31:31.990Z,2.33
2017-11-10T16:33:58.804Z,1.87
2017-11-10T16:36:25.679Z,2.03
2017-11-10T16:38:52.497Z,1.90
2017-11-10T16:41:19.586Z,2.20
2017-11-10T16:43:46.688Z,2.55
2017-11-10T16:46:13.504Z,2.00
2017-11-10T16:48:40.365Z,1.92
2017-11-10T16:51:07.201Z,1.90
2017-11-10T16:53:34.097Z,2.67
2017-11-10T16:56:00.973Z,2.40
2017-11-10T16:58:28.160Z,2.50
2017-11-10T17:00:55.025Z,2.08
2017-11-10T17:03:22.110Z,2.00
2017-11-10T17:05:49.206Z,3.40
2017-11-10T17:08:16.074Z,2.53
2017-11-10T17:10:43.197Z,2.87
2017-11-10T17:13:10.032Z,3.67
2017-11-10T17:15:37.190Z,3.25
2017-11-10T17:18:04.044Z,2.42
2017-11-10T17:20:30.888Z,2.80
2017-11-10T17:22:57.995Z,2.87
2017-11-10T17:25:24.870Z,3.22
2017-11-10T17:27:52.024Z,2.80
2017-11-10T17:30:19.164Z,2.70
2017-11-10T17:32:46.016Z,2.65
2017-11-10T17:35:12.878Z,3.17
2017-11-10T17:37:39.745Z,2.53
2017-11-10T17:40:06.610Z,3.17
2017-11-10T17:42:33.495Z,2.67
2017-11-10T17:45:00.373Z,2.60
2017-11-10T17:47:27.690Z,3.00
2017-11-10T17:49:54.577Z,2.40
2017-11-10T17:52:21.684Z,2.80
2017-11-10T17:54:48.559Z,3.00
2017-11-10T17:57:15.466Z,2.30
2017-11-10T17:59:42.622Z,2.50
2017-11-10T18:02:09.770Z,2.67
2017-11-10T18:04:36.673Z,2.33
2017-11-10T18:07:03.493Z,2.22
2017-11-10T18:09:30.600Z,2.35
2017-11-10T18:11:57.762Z,2.00
2017-11-10T18:14:24.681Z,2.17
2017-11-10T18:16:51.499Z,2.70
2017-11-10T18:19:18.361Z,2.87
2017-11-10T18:21:45.542Z,2.10
2017-11-10T18:24:12.385Z,1.80
2017-11-10T18:26:39.532Z,2.28
2017-11-10T18:29:06.342Z,2.25
2017-11-10T18:31:33.196Z,2.00
2017-11-10T18:34:00.375Z,1.85
2017-11-10T18:36:27.233Z,1.87
2017-11-10T18:38:54.121Z,2.20
2017-11-10T18:41:21.006Z,1.90
2017-11-10T18:43:48.257Z,1.80
2017-11-10T18:46:15.357Z,2.00
2017-11-10T18:48:42.554Z,1.60
2017-11-10T18:51:09.445Z,2.20
2017-11-10T18:53:36.650Z,2.42
2017-11-10T18:56:03.501Z,1.62
2017-11-10T18:58:30.332Z,1.60
2017-11-10T19:00:57.160Z,2.00
2017-11-10T19:03:24.065Z,3.70
2017-11-10T19:05:50.962Z,2.30
2017-11-10T19:08:18.112Z,4.22
2017-11-10T19:10:44.980Z,3.05
2017-11-10T19:13:11.806Z,2.53
2017-11-10T19:15:38.923Z,9.43
2017-11-10T19:18:06.106Z,2.40
2017-11-10T19:20:32.945Z,2.20
2017-11-10T19:22:59.795Z,2.33
2017-11-10T19:25:26.701Z,1.90
2017-11-10T19:27:53.780Z,1.90
2017-11-10T19:30:20.594Z,2.00
2017-11-10T19:32:47.408Z,1.70
2017-11-10T19:35:14.244Z,1.87
2017-11-10T19:37:41.362Z,1.60
2017-11-10T19:40:08.200Z,1.53
2017-11-10T19:42:35.059Z,1.50
2017-11-10T19:45:01.914Z,1.80
2017-11-10T19:47:28.767Z,1.75
2017-11-10T19:49:55.613Z,1.50
2017-11-10T19:52:22.493Z,1.37
2017-11-10T19:54:49.350Z,1.40
2017-11-10T19:57:16.213Z,1.50
2017-11-10T19:59:43.304Z,2.45
2017-11-10T20:02:10.400Z,1.37
2017-11-10T20:04:37.266Z,1.47
2017-11-10T20:07:04.410Z,2.30
2017-11-10T20:09:31.318Z,7.57
2017-11-10T20:11:58.177Z,2.10
2017-11-10T20:14:25.337Z,1.80
2017-11-10T20:16:52.485Z,2.10
2017-11-10T20:19:19.642Z,2.00
2017-11-10T20:21:46.474Z,1.92
2017-11-10T20:24:13.293Z,1.90
2017-11-10T20:26:40.117Z,1.90
2017-11-10T20:29:06.939Z,1.35
2017-11-10T20:31:33.797Z,1.85
2017-11-10T20:34:00.618Z,7.43
2017-11-10T20:36:27.744Z,1.80
2017-11-10T20:38:54.752Z,1.55
2017-11-10T20:41:21.572Z,1.83
2017-11-10T20:43:48.680Z,1.80
2017-11-10T20:46:15.524Z,1.60
2017-11-10T20:48:42.373Z,1.95
2017-11-10T20:51:09.192Z,1.70
2017-11-10T20:53:36.228Z,2.00
2017-11-10T20:56:03.067Z,2.47
2017-11-10T20:58:29.914Z,2.47
2017-11-10T21:00:56.805Z,2.12
2017-11-10T21:03:23.645Z,2.90
2017-11-10T21:05:50.540Z,2.28
2017-11-10T21:08:17.625Z,2.78
2017-11-10T21:10:44.469Z,3.10
2017-11-10T21:13:11.340Z,2.70
2017-11-10T21:15:38.167Z,2.78
2017-11-10T21:18:05.038Z,2.42
2017-11-10T21:20:31.918Z,2.40
2017-11-10T21:22:59.709Z,2.33
2017-11-10T21:25:26.564Z,2.58
2017-11-10T21:27:53.482Z,2.30
2017-11-10T21:30:20.337Z,2.50
2017-11-10T21:32:47.181Z,2.40
2017-11-10T21:35:14.047Z,2.60
2017-11-10T21:37:41.187Z,2.60
2017-11-10T21:40:08.334Z,2.65
2017-11-10T21:42:35.199Z,2.47
2017-11-10T21:45:02.058Z,2.70
2017-11-10T21:47:28.884Z,2.22
2017-11-10T21:49:55.736Z,5.05
2017-11-10T21:52:22.549Z,4.28
2017-11-10T21:54:49.432Z,2.70
2017-11-10T21:57:16.358Z,2.30
2017-11-10T21:59:43.189Z,3.25
2017-11-10T22:02:10.027Z,3.10
2017-11-10T22:04:37.279Z,1.70
2017-11-10T22:07:04.417Z,2.10
2017-11-10T22:09:31.241Z,1.30
2017-11-10T22:11:58.121Z,1.50
2017-11-10T22:14:24.966Z,1.50
2017-11-10T22:16:52.096Z,2.30
2017-11-10T22:19:18.969Z,1.92
2017-11-10T22:21:46.070Z,1.00
2017-11-10T22:24:12.958Z,1.90
2017-11-10T22:26:39.822Z,1.70
2017-11-10T22:29:07.456Z,1.35
2017-11-10T22:31:34.592Z,1.00
2017-11-10T22:34:01.466Z,1.30
2017-11-10T22:36:28.320Z,0.90
2017-11-10T22:38:55.384Z,0.80
2017-11-10T22:41:22.235Z,1.00
2017-11-10T22:43:49.136Z,0.90
2017-11-10T22:46:16.269Z,0.90
2017-11-10T22:48:43.413Z,0.60
2017-11-10T22:51:10.267Z,0.50
2017-11-10T22:53:37.100Z,0.80
2017-11-10T22:56:04.010Z,0.60
2017-11-10T22:58:31.568Z,0.70
2017-11-10T23:00:58.400Z,0.70
2017-11-10T23:03:25.605Z,0.60
2017-11-10T23:05:52.596Z,0.93
2017-11-10T23:08:21.750Z,0.70
2017-11-10T23:10:48.645Z,0.80
2017-11-10T23:13:15.593Z,0.70
2017-11-10T23:15:42.685Z,0.60
2017-11-10T23:18:09.513Z,1.48
2017-11-10T23:20:36.393Z,2.62
2017-11-10T23:23:03.230Z,0.80
2017-11-10T23:25:30.365Z,0.80
2017-11-10T23:27:57.192Z,0.90
2017-11-10T23:30:24.008Z,0.70
2017-11-10T23:32:51.196Z,0.60
2017-11-10T23:35:18.016Z,0.80
2017-11-10T23:37:44.835Z,0.80
2017-11-10T23:40:11.697Z,0.80
2017-11-10T23:42:38.533Z,0.98
2017-11-10T23:45:05.620Z,0.70
2017-11-10T23:47:32.810Z,0.80
2017-11-10T23:49:59.931Z,0.90
2017-11-10T23:52:26.736Z,0.60
2017-11-10T23:54:53.921Z,0.70
2017-11-10T23:57:20.775Z,1.00
2017-11-10T23:59:47.596Z,0.70
